Home > Products > Valid Products > MTR

000
SAUS45 KLKN 020055
MTRP68
METAR KP68 020053Z AUTO 03004KT 09/M07 A3016 RMK AO1 SLP209
T00891067





000
SAUS45 KLKN 012355
MTRP68
METAR KP68 012353Z AUTO 00000KT 12/M12 A3014 RMK AO1 SLP193
T01171122 10117 20033 56012





000
SAUS45 KLKN 012254
MTRP68
METAR KP68 012253Z AUTO 17004KT 11/M11 A3015 RMK AO1 SLP198
T01111111





000
SAUS45 KLKN 012154
MTRP68
METAR KP68 012153Z AUTO 21004KT 11/M11 A3017 RMK AO1 SLP205
T01061111





000
SAUS45 KLKN 012054
MTRP68
METAR KP68 012053Z AUTO VRB04KT 09/M09 A3019 RMK AO1 SLP213
T00941089 58020





000
SAUS45 KLKN 011954
MTRP68
METAR KP68 011953Z AUTO 00000KT 08/M07 A3022 RMK AO1 SLP232
T00781072





000
SAUS45 KLKN 011854
MTRP68
METAR KP68 011853Z AUTO 23005KT 06/M07 A3024 RMK AO1 SLP241
T00611072





000
SAUS45 KLKN 011754
MTRP68
METAR KP68 011753Z AUTO 22005KT 03/M06 A3025 RMK AO1 SLP250
T00331061 10033 21061 50005





000
SAUS45 KLKN 011654
MTRP68
METAR KP68 011653Z AUTO 22006KT 00/M06 A3026 RMK AO1 SLP257
T00001061





000
SAUS45 KLKN 011654
MTRP68
METAR KP68 011653Z AUTO 22006KT 00/M06 A3026 RMK AO1 SLP257
T00001061





000
SAUS45 KLKN 011555
MTRP68
METAR KP68 011553Z AUTO 22005KT M04/M07 A3026 RMK AO1 SLP266
T10391072





000
SAUS45 KLKN 011555
MTRP68
METAR KP68 011553Z AUTO 22005KT M04/M07 A3026 RMK AO1 SLP266
T10391072





000
SAUS45 KLKN 011454
MTRP68
METAR KP68 011453Z AUTO 20008KT M06/M09 A3024 RMK AO1 SLP257
T10561089 53000





000
SAUS45 KLKN 011354
MTRP68
METAR KP68 011353Z AUTO 19006KT M06/M09 A3023 RMK AO1 SLP251
T10561089





000
SAUS45 KLKN 011254
MTRP68
METAR KP68 011253Z AUTO 19007KT M06/M09 A3023 RMK AO1 SLP240
T10561089





000
SAUS45 KLKN 011154
MTRP68
METAR KP68 011153Z AUTO 20007KT M06/M08 A3024 RMK AO1 SLP234
T10561083 11039 21072 50000





000
SAUS45 KLKN 011054
MTRP68
METAR KP68 011053Z AUTO 20007KT M06/M08 A3024 RMK AO1 SLP237
T10561083





000
SAUS45 KLKN 010954
MTRP68
METAR KP68 010953Z AUTO 19006KT M05/M08 A3024 RMK AO1 SLP236
T10501083





000
SAUS45 KLKN 010854
MTRP68
METAR KP68 010853Z AUTO 16004KT M05/M08 A3023 RMK AO1 SLP236
T10501083 51005





000
SAUS45 KLKN 010754
MTRP68
METAR KP68 010753Z AUTO 17005KT M06/M08 A3023 RMK AO1 SLP240
T10561083 400831061





000
SAUS45 KLKN 010654
MTRP68
METAR KP68 010653Z AUTO 00000KT M06/M08 A3022 RMK AO1 SLP239
T10561078





000
SAUS45 KLKN 010654
MTRP68
METAR KP68 010653Z AUTO 00000KT M06/M08 A3022 RMK AO1 SLP239
T10561078





000
SAUS45 KLKN 010554
MTRP68
METAR KP68 010553Z AUTO 19005KT M05/M07 A3022 RMK AO1 SLP239
T10501072 10083 21056 50010





000
SAUS45 KLKN 010554
MTRP68
METAR KP68 010553Z AUTO 19005KT M05/M07 A3022 RMK AO1 SLP239
T10501072 10083 21056 50010





000
SAUS45 KLKN 010454
MTRP68
METAR KP68 010453Z AUTO 00000KT M03/M07 A3022 RMK AO1 SLP242
T10331067





000
SAUS45 KLKN 010454
MTRP68
METAR KP68 010453Z AUTO 00000KT M03/M07 A3022 RMK AO1 SLP242
T10331067





000
SAUS45 KLKN 010355
MTRP68
METAR KP68 010353Z AUTO 00000KT M03/M07 A3018 RMK AO1 SLP236
T10331067





000
SAUS45 KLKN 010355
MTRP68
METAR KP68 010353Z AUTO 00000KT M03/M07 A3018 RMK AO1 SLP236
T10331067





000
SAUS45 KLKN 010254
MTRP68
METAR KP68 010253Z AUTO 18005KT M02/M06 A3018 RMK AO1 SLP235
T10171061 51017





000
SAUS45 KLKN 010254
MTRP68
METAR KP68 010253Z AUTO 18005KT M02/M06 A3018 RMK AO1 SLP235
T10171061 51017





000
SAUS45 KLKN 010154
MTRP68
METAR KP68 010153Z AUTO 30003KT 01/M06 A3017 RMK AO1 SLP219
T00061061





000
SAUS45 KLKN 010154
MTRP68
METAR KP68 010153Z AUTO 30003KT 01/M06 A3017 RMK AO1 SLP219
T00061061





000
SAUS45 KLKN 010055
MTRP68
METAR KP68 010053Z AUTO 04005KT 06/M06 A3014 RMK AO1 SLP193
T00561061





000
SAUS45 KLKN 010055
MTRP68
METAR KP68 010053Z AUTO 04005KT 06/M06 A3014 RMK AO1 SLP193
T00561061





000
SAUS45 KLKN 312354
MTRP68
METAR KP68 312353Z AUTO 36009KT 08/M07 A3012 RMK AO1 SLP180
T00831067 10083 20028 53005





000
SAUS45 KLKN 312254
MTRP68
METAR KP68 312253Z AUTO 01007KT 320V040 08/M07 A3011 RMK AO1 SLP177
T00781067





000
SAUS45 KLKN 312155
MTRP68
METAR KP68 312153Z AUTO 02005G14KT 08/M07 A3010 RMK AO1 SLP174
T00831072





000
SAUS45 KLKN 312155
MTRP68
METAR KP68 312153Z AUTO 02005G14KT 08/M07 A3010 RMK AO1 SLP174
T00831072





000
SAUS45 KLKN 312054
MTRP68
METAR KP68 312053Z AUTO VRB03KT 07/M07 A3010 RMK AO1 SLP176
T00671067 58011





000
SAUS45 KLKN 311954
MTRP68
METAR KP68 311953Z AUTO 05/M07 A3013 RMK AO1 SLP191 T00501067





000
SAUS45 KLKN 311854
MTRP68
METAR KP68 311853Z AUTO 36005KT 04/M04 A3015 RMK AO1 SLP195
T00441044





000
SAUS45 KLKN 311754
MTRP68
METAR KP68 311753Z AUTO 02007KT 03/M04 A3014 RMK AO1 SLP195
T00281044 10033 21044 53013





000
SAUS45 KLKN 311654
MTRP68
METAR KP68 311653Z AUTO 18003KT 01/M03 A3011 RMK AO1 SLP188
T00061033





000
SAUS45 KLKN 311555
MTRP68
METAR KP68 311553Z AUTO 00000KT M03/M04 A3010 RMK AO1 SLP194
T10281044





000
SAUS45 KLKN 311454
MTRP68
METAR KP68 311453Z AUTO 00000KT M04/M06 A3010 RMK AO1 SLP195
T10441061 53018





000
SAUS45 KLKN 311354
MTRP68
METAR KP68 311353Z AUTO 05003KT M02/M04 A3008 RMK AO1 SLP181
T10171039





000
SAUS45 KLKN 311254
MTRP68
METAR KP68 311253Z AUTO 34003KT M01/M03 A3004 RMK AO1 SLP162
T10061033





000
SAUS45 KLKN 311157 COR
MTRP68
METAR KP68 311153Z AUTO 00000KT 01/M03 A3003 RMK AO1 SLP154 70001
T00061028 10022 20006 52004





000
SAUS45 KLKN 311157
MTRP68
gl
REQ RNOMTRP68





000
SAUS45 KLKN 311155 COR
MTRP68
METAR KP68 311153Z AUTO 00000KT 01/M03 A3003 RMK AO1 SLP154 70001
T00061028 10022 20006 52004





000
SAUS45 KLKN 311055
MTRP68
METAR KP68 311053Z AUTO 36010KT 01/M02 A3003 RMK AO1 SLP151
T00061022





000
SAUS45 KLKN 310954
MTRP68
METAR KP68 310953Z AUTO 01004KT 01/M02 A3002 RMK AO1 SLP150
T00061017





000
SAUS45 KLKN 310854
MTRP68
METAR KP68 310853Z AUTO 01005KT 01/M02 A3002 RMK AO1 SLP149
T00061017 53005





000
SAUS45 KLKN 310754
MTRP68
METAR KP68 310753Z AUTO 34007KT 01/M01 A3001 RMK AO1 SLP147
T00061011 400720000





000
SAUS45 KLKN 310654
MTRP68
METAR KP68 310653Z AUTO 35010KT 02/M02 A3000 RMK AO1 SLP146
T00171017





000
SAUS45 KLKN 310554
MTRP68
METAR KP68 310553Z AUTO 36010KT 02/M01 A3000 RMK AO1 SLP145 60001
T00221011 10056 20022 53004





000
SAUS45 KLKN 310454
MTRP68
METAR KP68 310453Z AUTO 01008KT 03/M01 A3000 RMK AO1 SLP146
T00281006





000
SAUS45 KLKN 310354
MTRP68
METAR KP68 310353Z AUTO 36009KT 03/01 A2998 RMK AO1 SLP141 T00280006





000
SAUS45 KLKN 310254
MTRP68
METAR KP68 310253Z AUTO 35008KT 03/01 A2999 RMK AO1 SLP143 P0001
60001 T00330011 53002





000
SAUS45 KLKN 310154
MTRP68
METAR KP68 310153Z AUTO 36012KT 04/01 A2998 RMK AO1 SLP141 T00390006





000
SAUS45 KLKN 310054
MTRP68
METAR KP68 310053Z AUTO 36009KT 05/M01 A2998 RMK AO1 SLP137
T00501006





000
SAUS45 KLKN 302354
MTRP68
METAR KP68 302353Z AUTO 35014KT 06/M01 A2998 RMK AO1 SLP135
T00561006 10072 20028 55012





000
SAUS45 KLKN 302255
MTRP68
METAR KP68 302253Z AUTO 36013KT 07/M01 A2997 RMK AO1 SLP131
T00671006





000
SAUS45 KLKN 302154
MTRP68
METAR KP68 302153Z AUTO 01012G20KT 06/M01 A2999 RMK AO1 SLP136
T00611006





000
SAUS45 KLKN 302054
MTRP68
METAR KP68 302053Z AUTO 01010KT 06/00 A3002 RMK AO1 SLP148 T00610000
58022





000
SAUS45 KLKN 301954
MTRP68
METAR KP68 301953Z AUTO 04009KT 06/00 A3006 RMK AO1 SLP161 T00560000





000
SAUS45 KLKN 301854
MTRP68
METAR KP68 301853Z AUTO 03008KT 04/00 A3009 RMK AO1 SLP173 T00390000





000
SAUS45 KLKN 301758 COR
MTRP68
METAR KP68 301753Z AUTO 02004KT 03/M01 A3010 RMK AO1 SLP178
T00281006 10028 20000 56001





000
SAUS45 KLKN 301756 COR
MTRP68
METAR KP68 301753Z AUTO 02004KT 03/M01 A3010 RMK AO1 SLP178
T00281006 10028 20000 56001





000
SAUS45 KLKN 301755
MTRP68
METAR KP68 301753Z AUTO 02004KT 03/M01 A3010 RMK AO1 SLP178
T00281006 10028 20000 56001





000
SAUS45 KLKN 301755 COR
MTRP68
METAR KP68 301753Z AUTO 02004KT 03/M01 A3010 RMK AO1 SLP178
T00281006 10028 20000 56001





000
SAUS45 KLKN 301654
MTRP68
METAR KP68 301653Z AUTO 35005KT 02/M01 A3010 RMK AO1 SLP181
T00171006





000
SAUS45 KLKN 301555
MTRP68
METAR KP68 301553Z AUTO 00000KT 01/M01 A3010 RMK AO1 SLP181
T00111011





000
SAUS45 KLKN 301455
MTRP68
METAR KP68 301453Z AUTO 00000KT 01/M01 A3010 RMK AO1 SLP182
T00061011 56006





000
SAUS45 KLKN 301354
MTRP68
METAR KP68 301353Z AUTO 00000KT 01/M01 A3011 RMK AO1 SLP183
T00061011





000
SAUS45 KLKN 301254
MTRP68
METAR KP68 301253Z AUTO 20004KT 01/M01 A3011 RMK AO1 SLP183
T00061011





000
SAUS45 KLKN 301155
MTRP68
METAR KP68 301153Z AUTO 00000KT 01/M02 A3013 RMK AO1 SLP185
T00061017 10039 20000 58014





000
SAUS45 KLKN 301054
MTRP68
METAR KP68 301053Z AUTO 00000KT 01/M01 A3014 RMK AO1 SLP187
T00111011





000
SAUS45 KLKN 300954
MTRP68
METAR KP68 300953Z AUTO 00000KT 01/M01 A3016 RMK AO1 SLP195
T00111011





000
SAUS45 KLKN 300854
MTRP68
METAR KP68 300853Z AUTO 27005KT 01/M02 A3017 RMK AO1 SLP202
T00111017 58004





000
SAUS45 KLKN 300754
MTRP68
METAR KP68 300753Z AUTO 06003KT 02/M01 A3019 RMK AO1 SLP203
T00221011 400781050





000
SAUS45 KLKN 300654
MTRP68
METAR KP68 300653Z AUTO 07003KT 03/M01 A3019 RMK AO1 SLP207
T00281011





000
SAUS45 KLKN 300555
MTRP68
METAR KP68 300553Z AUTO 09006KT 04/00 A3019 RMK AO1 SLP207 T00390000
10067 20033 58007





000
SAUS45 KLKN 300454
MTRP68
METAR KP68 300453Z AUTO 09007KT 04/00 A3020 RMK AO1 SLP213 T00390000





000
SAUS45 KLKN 300354
MTRP68
METAR KP68 300353Z AUTO 11007KT 04/00 A3021 RMK AO1 SLP223 T00440000





000
SAUS45 KLKN 300254
MTRP68
METAR KP68 300253Z AUTO 13009KT 05/00 A3021 RMK AO1 SLP226 T00500000
53002





    US Dept of Commerce
    National Oceanic and Atmospheric Administration
    National Weather Service
    1325 East West Highway
    Silver Spring, MD 20910
    Page Author: NWS Internet Services Team
Disclaimer
Information Quality
Credits
Glossary
Privacy Policy
Freedom of Information Act (FOIA)
About Us
Career Opportunities